createdAt,value
2022-09-02T00:01:00.563Z,101269.94
2022-09-02T00:03:34.429Z,101275.03
2022-09-02T00:06:02.347Z,101266.75
2022-09-02T00:08:31.883Z,101258.28
2022-09-02T00:11:01.099Z,101260.72
2022-09-02T00:13:29.142Z,101267.59
2022-09-02T00:15:56.208Z,101256.94
2022-09-02T00:18:23.957Z,101273.81
2022-09-02T00:20:50.950Z,101263.53
2022-09-02T00:23:17.610Z,101271.72
2022-09-02T00:25:45.222Z,101266.81
2022-09-02T00:28:13.710Z,101260.88
2022-09-02T00:30:43.087Z,101260.78
2022-09-02T00:33:10.638Z,101258.34
2022-09-02T00:35:37.159Z,101261.00
2022-09-02T00:38:05.362Z,101257.00
2022-09-02T00:40:32.902Z,101255.88
2022-09-02T00:42:59.967Z,101259.94
2022-09-02T00:45:27.075Z,101263.81
2022-09-02T00:47:53.645Z,101258.06
2022-09-02T00:50:26.437Z,101261.91
2022-09-02T00:52:58.765Z,101262.59
2022-09-02T00:55:32.916Z,101258.44
2022-09-02T00:58:04.996Z,101253.97
2022-09-02T01:00:42.399Z,101247.91
2022-09-02T01:03:15.725Z,101251.91
2022-09-02T01:05:45.573Z,101251.25
2022-09-02T01:08:19.537Z,101242.34
2022-09-02T01:10:48.566Z,101243.31
2022-09-02T01:13:20.322Z,101244.94
2022-09-02T01:15:55.122Z,101237.50
2022-09-02T01:18:29.980Z,101239.63
2022-09-02T01:20:59.625Z,101237.38
2022-09-02T01:23:28.397Z,101241.50
2022-09-02T01:25:58.550Z,101229.72
2022-09-02T01:28:25.495Z,101229.94
2022-09-02T01:30:54.281Z,101232.75
2022-09-02T01:33:23.728Z,101227.50
2022-09-02T01:35:52.883Z,101231.03
2022-09-02T01:38:20.762Z,101226.50
2022-09-02T01:40:47.755Z,101223.56
2022-09-02T01:43:18.081Z,101228.06
2022-09-02T01:45:47.133Z,101222.97
2022-09-02T01:48:14.324Z,101219.38
2022-09-02T01:50:55.250Z,101221.44
2022-09-02T01:53:22.408Z,101222.66
2022-09-02T01:55:49.680Z,101223.88
2022-09-02T01:58:16.334Z,101221.13
2022-09-02T02:00:42.921Z,101218.78
2022-09-02T02:03:09.481Z,101217.88
2022-09-02T02:05:36.521Z,101218.59
2022-09-02T02:08:04.033Z,101212.56
2022-09-02T02:10:30.691Z,101216.13
2022-09-02T02:12:57.266Z,101203.25
2022-09-02T02:17:50.574Z,101209.00
2022-09-02T02:20:18.598Z,101208.81
2022-09-02T02:22:48.151Z,101202.41
2022-09-02T02:25:16.618Z,101208.91
2022-09-02T02:27:43.995Z,101203.63
2022-09-02T02:30:11.703Z,101215.06
2022-09-02T02:32:38.372Z,101205.22
2022-09-02T02:35:05.950Z,101206.81
2022-09-02T02:37:32.525Z,101205.97
2022-09-02T02:39:59.172Z,101203.88
2022-09-02T02:42:25.662Z,101195.88
2022-09-02T02:44:52.206Z,101202.28
2022-09-02T02:47:18.712Z,101193.16
2022-09-02T02:49:45.270Z,101197.53
2022-09-02T02:52:13.086Z,101194.00
2022-09-02T02:54:41.025Z,101199.56
2022-09-02T02:57:08.799Z,101187.38
2022-09-02T02:59:36.865Z,101192.75
2022-09-02T03:02:04.763Z,101189.50
2022-09-02T03:04:31.503Z,101193.19
2022-09-02T03:06:58.020Z,101183.13
2022-09-02T03:09:24.527Z,101183.91
2022-09-02T03:11:51.115Z,101182.53
2022-09-02T03:14:18.983Z,101182.41
2022-09-02T03:16:45.523Z,101185.94
2022-09-02T03:19:14.114Z,101185.81
2022-09-02T03:21:42.270Z,101175.03
2022-09-02T03:24:12.086Z,101179.78
2022-09-02T03:26:41.244Z,101185.66
2022-09-02T03:29:07.697Z,101182.88
2022-09-02T03:31:34.756Z,101177.63
2022-09-02T03:34:04.292Z,101169.16
2022-09-02T03:36:38.817Z,101165.88
2022-09-02T03:39:09.776Z,101168.53
2022-09-02T03:41:36.839Z,101170.28
2022-09-02T03:44:03.717Z,101170.09
2022-09-02T03:46:30.299Z,101169.16
2022-09-02T03:48:57.002Z,101177.66
2022-09-02T03:51:24.700Z,101172.19
2022-09-02T03:53:51.549Z,101166.00
2022-09-02T03:56:18.711Z,101171.66
2022-09-02T03:58:48.110Z,101176.81
2022-09-02T04:01:21.203Z,101172.41
2022-09-02T04:03:48.164Z,101174.22
2022-09-02T04:06:17.051Z,101175.22
2022-09-02T04:08:46.610Z,101170.06
2022-09-02T04:11:19.533Z,101180.75
2022-09-02T04:13:47.325Z,101173.69
2022-09-02T04:16:17.525Z,101176.28
2022-09-02T04:18:44.037Z,101176.50
2022-09-02T04:21:11.300Z,101178.19
2022-09-02T04:23:40.832Z,101173.06
2022-09-02T04:26:10.650Z,101179.91
2022-09-02T04:28:37.187Z,101173.94
2022-09-02T04:31:06.092Z,101166.44
2022-09-02T04:33:33.469Z,101170.91
2022-09-02T04:36:00.260Z,101175.84
2022-09-02T04:38:27.010Z,101175.31
2022-09-02T04:40:53.524Z,101172.41
2022-09-02T04:43:20.138Z,101182.50
2022-09-02T04:45:47.116Z,101186.53
2022-09-02T04:48:14.316Z,101181.94
2022-09-02T04:50:42.077Z,101172.44
2022-09-02T04:53:09.283Z,101176.38
2022-09-02T04:55:39.812Z,101181.19
2022-09-02T04:58:06.351Z,101180.22
2022-09-02T05:00:32.974Z,101180.00
2022-09-02T05:03:00.067Z,101187.72
2022-09-02T05:05:26.644Z,101183.88
2022-09-02T05:07:56.272Z,101180.88
2022-09-02T05:10:23.050Z,101175.72
2022-09-02T05:12:49.540Z,101177.84
2022-09-02T05:15:16.546Z,101181.19
2022-09-02T05:17:43.105Z,101181.84
2022-09-02T05:20:10.520Z,101186.53
2022-09-02T05:22:37.485Z,101176.69
2022-09-02T05:25:06.378Z,101175.41
2022-09-02T05:27:33.337Z,101180.34
2022-09-02T05:30:05.232Z,101180.22
2022-09-02T05:32:36.944Z,101174.78
2022-09-02T05:35:04.610Z,101170.28
2022-09-02T05:37:31.077Z,101170.91
2022-09-02T05:39:57.623Z,101171.56
2022-09-02T05:42:24.062Z,101178.84
2022-09-02T05:44:50.513Z,101169.09
2022-09-02T05:47:17.066Z,101174.19
2022-09-02T05:49:43.519Z,101177.47
2022-09-02T05:52:12.630Z,101174.13
2022-09-02T05:54:40.074Z,101176.38
2022-09-02T05:57:10.840Z,101174.44
2022-09-02T05:59:42.263Z,101173.88
2022-09-02T06:02:13.690Z,101164.06
2022-09-02T06:04:43.024Z,101163.94
2022-09-02T06:07:09.898Z,101162.44
2022-09-02T06:09:41.112Z,101160.72
2022-09-02T06:12:08.670Z,101169.97
2022-09-02T06:14:35.375Z,101158.63
2022-09-02T06:17:01.996Z,101160.22
2022-09-02T06:19:32.537Z,101161.53
2022-09-02T06:22:01.273Z,101158.97
2022-09-02T06:24:29.569Z,101168.59
2022-09-02T06:26:57.355Z,101155.09
2022-09-02T06:29:26.067Z,101161.25
2022-09-02T06:31:53.396Z,101164.94
2022-09-02T06:34:22.185Z,101167.75
2022-09-02T06:36:50.596Z,101163.50
2022-09-02T06:39:20.220Z,101159.19
2022-09-02T06:41:48.454Z,101156.78
2022-09-02T06:44:16.279Z,101158.75
2022-09-02T06:46:49.107Z,101157.41
2022-09-02T06:49:21.586Z,101155.41
2022-09-02T06:51:50.696Z,101162.56
2022-09-02T06:54:20.024Z,101168.25
2022-09-02T06:56:49.492Z,101171.03
2022-09-02T06:59:20.544Z,101168.34
2022-09-02T07:01:47.978Z,101160.16
2022-09-02T07:04:33.506Z,101156.16
2022-09-02T07:07:00.031Z,101159.44
2022-09-02T07:09:33.846Z,101162.47
2022-09-02T07:12:05.025Z,101159.16
2022-09-02T07:14:32.540Z,101156.88
2022-09-02T07:17:00.125Z,101160.00
2022-09-02T07:19:27.134Z,101162.19
2022-09-02T07:21:54.245Z,101160.34
2022-09-02T07:24:21.422Z,101159.72
2022-09-02T07:26:48.518Z,101155.53
2022-09-02T07:29:15.743Z,101165.84
2022-09-02T07:31:45.555Z,101158.06
2022-09-02T07:34:13.096Z,101149.56
2022-09-02T07:36:40.254Z,101157.16
2022-09-02T07:39:09.232Z,101150.81
2022-09-02T07:41:37.334Z,101151.53
2022-09-02T07:44:04.910Z,101163.25
2022-09-02T07:46:32.212Z,101147.19
2022-09-02T07:49:00.194Z,101156.38
2022-09-02T07:51:30.818Z,101143.50
2022-09-02T07:53:57.570Z,101140.75
2022-09-02T07:56:24.030Z,101140.72
2022-09-02T07:58:50.488Z,101138.41
2022-09-02T08:01:22.593Z,101125.00
2022-09-02T08:03:49.890Z,101132.69
2022-09-02T08:06:17.102Z,101127.63
2022-09-02T08:08:48.570Z,101131.41
2022-09-02T08:11:15.389Z,101128.88
2022-09-02T08:13:41.918Z,101131.72
2022-09-02T08:16:08.452Z,101126.56
2022-09-02T08:18:36.133Z,101134.63
2022-09-02T08:21:02.631Z,101141.69
2022-09-02T08:23:37.459Z,101136.63
2022-09-02T08:26:05.517Z,101134.69
2022-09-02T08:28:32.187Z,101131.94
2022-09-02T08:30:59.185Z,101123.88
2022-09-02T08:33:25.806Z,101120.19
2022-09-02T08:35:52.334Z,101128.41
2022-09-02T08:38:18.822Z,101133.41
2022-09-02T08:40:45.581Z,101122.09
2022-09-02T08:43:40.445Z,101134.72
2022-09-02T08:46:10.714Z,101121.78
2022-09-02T08:48:50.590Z,101114.34
2022-09-02T08:51:37.565Z,101117.94
2022-09-02T08:54:07.028Z,101117.88
2022-09-02T08:56:33.550Z,101115.88
2022-09-02T08:59:03.738Z,101105.53
2022-09-02T09:01:53.431Z,101110.53
2022-09-02T09:05:01.904Z,101113.63
2022-09-02T09:07:31.542Z,101096.31
2022-09-02T09:10:06.959Z,101105.34
2022-09-02T09:13:00.618Z,101097.88
2022-09-02T09:15:42.517Z,101100.03
2022-09-02T09:18:15.742Z,101094.47
2022-09-02T09:20:44.168Z,101091.00
2022-09-02T09:23:34.412Z,101085.38
2022-09-02T09:26:07.119Z,101094.16
2022-09-02T09:28:40.577Z,101085.91
2022-09-02T09:31:13.391Z,101086.84
2022-09-02T09:33:41.502Z,101088.75
2022-09-02T09:36:09.978Z,101074.09
2022-09-02T09:38:40.286Z,101080.41
2022-09-02T09:41:21.610Z,101070.63
2022-09-02T09:43:48.265Z,101070.69
2022-09-02T09:46:40.866Z,101080.63
2022-09-02T09:49:07.309Z,101065.00
2022-09-02T09:51:49.970Z,101066.59
2022-09-02T09:54:18.001Z,101054.63
2022-09-02T09:56:44.526Z,101060.13
2022-09-02T09:59:36.701Z,101075.31
2022-09-02T10:02:03.389Z,101055.38
2022-09-02T10:04:47.716Z,101065.03
2022-09-02T10:07:14.711Z,101049.72
2022-09-02T10:09:41.705Z,101054.47
2022-09-02T10:12:12.977Z,101056.25
2022-09-02T10:14:43.952Z,101047.44
2022-09-02T10:17:15.978Z,101052.59
2022-09-02T10:19:52.573Z,101043.81
2022-09-02T10:22:59.609Z,101042.50
2022-09-02T10:25:51.383Z,101043.94
2022-09-02T10:28:20.945Z,101038.09
2022-09-02T10:31:18.993Z,101028.69
2022-09-02T10:34:01.277Z,101030.06
2022-09-02T10:36:57.856Z,101036.16
2022-09-02T10:39:44.189Z,101038.94
2022-09-02T10:42:45.680Z,101037.63
2022-09-02T10:45:24.201Z,101025.59
2022-09-02T10:48:01.834Z,101035.44
2022-09-02T10:50:37.210Z,101029.63
2022-09-02T10:53:09.802Z,101030.31
2022-09-02T10:55:52.353Z,101014.47
2022-09-02T10:58:22.205Z,101021.84
2022-09-02T11:00:52.965Z,101031.72
2022-09-02T11:03:32.465Z,101016.47
2022-09-02T11:06:08.441Z,101016.44
2022-09-02T11:08:40.797Z,101004.97
2022-09-02T11:11:11.152Z,101003.25
2022-09-02T11:14:16.772Z,100996.16
2022-09-02T11:16:55.860Z,100999.47
2022-09-02T11:19:32.886Z,100990.09
2022-09-02T11:22:17.774Z,100977.84
2022-09-02T11:24:52.456Z,100989.22
2022-09-02T11:27:42.249Z,100994.47
2022-09-02T11:30:32.483Z,100979.56
2022-09-02T11:33:07.331Z,100986.03
2022-09-02T11:35:38.822Z,100974.44
2022-09-02T11:38:34.334Z,100976.84
2022-09-02T11:44:25.866Z,100970.41
2022-09-02T11:47:32.182Z,100967.44
2022-09-02T11:50:07.206Z,100961.94
2022-09-02T11:52:53.892Z,100958.88
2022-09-02T11:55:25.184Z,100952.03
2022-09-02T11:57:54.230Z,100957.75
2022-09-02T12:00:32.992Z,100954.00
2022-09-02T12:03:16.722Z,100968.72
2022-09-02T12:06:13.702Z,100950.28
2022-09-02T12:08:40.660Z,100953.13
2022-09-02T12:11:07.964Z,100960.41
2022-09-02T12:16:21.106Z,100954.16
2022-09-02T12:18:58.238Z,100940.63
2022-09-02T12:21:26.835Z,100938.66
2022-09-02T12:23:53.947Z,100937.97
2022-09-02T12:26:23.162Z,100943.13
2022-09-02T12:28:53.766Z,100940.44
2022-09-02T12:31:21.792Z,100926.44
2022-09-02T12:33:51.520Z,100932.13
2022-09-02T12:36:46.152Z,100924.34
2022-09-02T12:39:25.372Z,100910.63
2022-09-02T12:42:07.132Z,100909.94
2022-09-02T12:44:55.037Z,100897.84
2022-09-02T12:47:49.237Z,100899.69
2022-09-02T12:50:50.753Z,100898.25
2022-09-02T12:53:23.182Z,100894.13
2022-09-02T12:56:01.700Z,100902.69
2022-09-02T12:58:34.544Z,100904.38
2022-09-02T13:01:37.297Z,100891.19
2022-09-02T13:04:28.975Z,100895.66
2022-09-02T13:07:07.213Z,100890.53
2022-09-02T13:09:55.262Z,100890.91
2022-09-02T13:12:48.845Z,100891.78
2022-09-02T13:15:26.738Z,100883.69
2022-09-02T13:18:31.305Z,100888.19
2022-09-02T13:21:03.992Z,100877.19
2022-09-02T13:24:04.242Z,100870.28
2022-09-02T13:26:55.296Z,100868.25
2022-09-02T13:29:30.349Z,100868.34
2022-09-02T13:32:20.074Z,100861.06
2022-09-02T13:34:48.969Z,100859.78
2022-09-02T13:37:36.514Z,100871.88
2022-09-02T13:40:36.007Z,100871.69
2022-09-02T13:43:13.086Z,100862.28
2022-09-02T13:45:40.416Z,100853.94
2022-09-02T13:48:33.269Z,100856.69
2022-09-02T13:51:09.052Z,100861.03
2022-09-02T13:53:49.390Z,100856.91
2022-09-02T13:56:27.272Z,100853.09
2022-09-02T13:58:58.423Z,100858.13
2022-09-02T14:01:38.453Z,100861.06
2022-09-02T14:04:16.875Z,100853.72
2022-09-02T14:06:46.467Z,100846.09
2022-09-02T14:09:24.078Z,100840.38
2022-09-02T14:11:50.753Z,100851.72
2022-09-02T14:14:21.604Z,100846.41
2022-09-02T14:16:48.224Z,100843.44
2022-09-02T14:19:17.866Z,100844.63
2022-09-02T14:21:50.120Z,100838.34
2022-09-02T14:24:22.090Z,100823.81
2022-09-02T14:26:51.677Z,100825.06
2022-09-02T14:29:19.912Z,100824.03
2022-09-02T14:32:02.512Z,100821.97
2022-09-02T14:35:08.774Z,100831.00
2022-09-02T14:37:48.625Z,100833.88
2022-09-02T14:40:15.233Z,100825.13
2022-09-02T14:42:52.733Z,100825.56
2022-09-02T14:45:34.767Z,100824.81
2022-09-02T14:48:10.397Z,100829.81
2022-09-02T14:50:38.371Z,100820.75
2022-09-02T14:53:08.856Z,100822.72
2022-09-02T14:55:46.691Z,100822.31
2022-09-02T14:58:14.164Z,100823.25
2022-09-02T15:00:40.783Z,100818.03
2022-09-02T15:03:07.551Z,100828.50
2022-09-02T15:05:34.109Z,100828.50
2022-09-02T15:08:00.550Z,100816.81
2022-09-02T15:10:27.891Z,100821.38
2022-09-02T15:12:57.471Z,100833.31
2022-09-02T15:15:24.655Z,100825.44
2022-09-02T15:17:51.254Z,100819.69
2022-09-02T15:20:18.214Z,100815.72
2022-09-02T15:22:45.405Z,100810.59
2022-09-02T15:25:11.864Z,100813.50
2022-09-02T15:27:38.442Z,100823.22
2022-09-02T15:30:06.366Z,100807.91
2022-09-02T15:32:33.033Z,100809.50
2022-09-02T15:34:59.616Z,100808.94
2022-09-02T15:37:27.543Z,100802.47
2022-09-02T15:39:54.166Z,100807.28
2022-09-02T15:42:21.016Z,100804.13
2022-09-02T15:44:47.790Z,100806.19
2022-09-02T15:47:14.398Z,100797.91
2022-09-02T15:49:40.862Z,100797.56
2022-09-02T15:52:07.637Z,100799.84
2022-09-02T15:54:34.140Z,100802.56
2022-09-02T15:57:00.599Z,100798.31
2022-09-02T15:59:28.056Z,100792.13
2022-09-02T16:02:00.667Z,100788.50
2022-09-02T16:04:27.485Z,100789.59
2022-09-02T16:06:54.055Z,100799.53
2022-09-02T16:09:20.778Z,100788.19
2022-09-02T16:11:52.671Z,100790.19
2022-09-02T16:14:21.424Z,100783.34
2022-09-02T16:16:56.898Z,100793.09
2022-09-02T16:19:25.477Z,100781.03
2022-09-02T16:21:53.458Z,100784.44
2022-09-02T16:24:22.735Z,100791.47
2022-09-02T16:26:50.953Z,100783.59
2022-09-02T16:29:18.469Z,100784.44
2022-09-02T16:32:01.820Z,100783.72
2022-09-02T16:34:33.480Z,100774.34
2022-09-02T16:37:00.654Z,100769.78
2022-09-02T16:39:27.183Z,100768.19
2022-09-02T16:41:54.378Z,100764.84
2022-09-02T16:44:23.334Z,100770.19
2022-09-02T16:46:51.221Z,100764.69
2022-09-02T16:49:19.917Z,100763.72
2022-09-02T16:51:47.974Z,100764.94
2022-09-02T16:54:21.160Z,100769.00
2022-09-02T16:56:56.124Z,100761.97
2022-09-02T16:59:22.576Z,100765.59
2022-09-02T17:01:49.026Z,100770.56
2022-09-02T17:04:15.632Z,100764.22
2022-09-02T17:06:42.480Z,100753.06
2022-09-02T17:09:09.523Z,100768.78
2022-09-02T17:11:39.668Z,100755.00
2022-09-02T17:14:16.067Z,100750.16
2022-09-02T17:16:48.358Z,100763.13
2022-09-02T17:19:21.156Z,100748.63
2022-09-02T17:21:52.355Z,100756.59
2022-09-02T17:24:23.966Z,100753.84
2022-09-02T17:26:55.780Z,100750.66
2022-09-02T17:32:11.500Z,100757.91
2022-09-02T17:34:38.021Z,100759.31
2022-09-02T17:37:05.344Z,100761.94
2022-09-02T17:39:33.841Z,100763.56
2022-09-02T17:42:00.633Z,100756.44
2022-09-02T17:44:35.732Z,100756.78
2022-09-02T17:47:13.425Z,100761.78
2022-09-02T17:49:44.488Z,100761.84
2022-09-02T17:52:13.967Z,100762.56
2022-09-02T17:54:41.603Z,100767.06
2022-09-02T17:57:29.165Z,100768.09
2022-09-02T18:00:16.043Z,100768.28
2022-09-02T18:03:24.193Z,100779.59
2022-09-02T18:06:05.957Z,100782.53
2022-09-02T18:08:42.986Z,100777.44
2022-09-02T18:11:12.156Z,100780.19
2022-09-02T18:13:54.309Z,100793.81
2022-09-02T18:16:33.530Z,100782.19
2022-09-02T18:19:25.288Z,100790.72
2022-09-02T18:22:22.350Z,100794.94
2022-09-02T18:25:13.588Z,100800.56
2022-09-02T18:27:46.222Z,100810.97
2022-09-02T18:30:18.401Z,100804.31
2022-09-02T18:32:50.478Z,100811.84
2022-09-02T18:35:25.946Z,100805.28
2022-09-02T18:38:21.359Z,100812.50
2022-09-02T18:41:06.972Z,100808.63
2022-09-02T18:43:39.407Z,100813.50
2022-09-02T18:46:07.301Z,100821.31
2022-09-02T18:48:38.950Z,100829.53
2022-09-02T18:51:09.935Z,100822.59
2022-09-02T18:53:49.317Z,100828.97
2022-09-02T18:56:18.069Z,100818.81
2022-09-02T18:58:50.693Z,100827.59
2022-09-02T19:01:24.857Z,100829.63
2022-09-02T19:03:51.974Z,100830.72
2022-09-02T19:06:25.247Z,100834.31
2022-09-02T19:08:58.466Z,100831.00
2022-09-02T19:11:25.866Z,100836.16
2022-09-02T19:13:55.520Z,100829.00
2022-09-02T19:16:24.545Z,100830.53
2022-09-02T19:18:51.366Z,100830.63
2022-09-02T19:21:40.775Z,100829.88
2022-09-02T19:24:12.622Z,100833.91
2022-09-02T19:26:42.576Z,100838.16
2022-09-02T19:29:16.128Z,100845.03
2022-09-02T19:31:43.514Z,100836.50
2022-09-02T19:34:10.563Z,100841.59
2022-09-02T19:36:42.346Z,100845.59
2022-09-02T19:39:09.284Z,100844.59
2022-09-02T19:41:35.954Z,100852.06
2022-09-02T19:44:02.452Z,100847.22
2022-09-02T19:47:07.029Z,100859.00
2022-09-02T19:49:16.557Z,100855.00
2022-09-02T19:51:43.571Z,100847.06
2022-09-02T19:54:13.616Z,100851.25
2022-09-02T19:56:40.950Z,100857.00
2022-09-02T19:59:07.468Z,100859.69
2022-09-02T20:01:35.023Z,100859.44
2022-09-02T20:04:01.530Z,100861.78
2022-09-02T20:06:28.017Z,100857.72
2022-09-02T20:08:54.474Z,100858.91
2022-09-02T20:11:20.939Z,100856.94
2022-09-02T20:13:49.159Z,100860.78
2022-09-02T20:16:21.896Z,100867.59
2022-09-02T20:18:50.034Z,100868.22
2022-09-02T20:21:42.203Z,100867.84
2022-09-02T20:24:10.413Z,100865.16
2022-09-02T20:26:56.212Z,100866.59
2022-09-02T20:29:31.235Z,100866.69
2022-09-02T20:32:25.430Z,100870.25
2022-09-02T20:35:29.256Z,100864.13
2022-09-02T20:38:17.801Z,100866.22
2022-09-02T20:41:03.658Z,100872.03
2022-09-02T20:43:47.222Z,100876.06
2022-09-02T20:46:22.875Z,100873.22
2022-09-02T20:49:01.321Z,100873.06
2022-09-02T20:51:38.366Z,100875.34
2022-09-02T20:54:23.347Z,100881.78
2022-09-02T20:57:27.379Z,100871.44
2022-09-02T21:00:04.652Z,100875.66
2022-09-02T21:02:38.694Z,100871.47
2022-09-02T21:05:22.108Z,100864.47
2022-09-02T21:07:56.894Z,100870.38
2022-09-02T21:10:33.243Z,100866.16
2022-09-02T21:13:08.589Z,100860.88
2022-09-02T21:15:56.294Z,100860.38
2022-09-02T21:18:28.762Z,100865.53
2022-09-02T21:21:17.884Z,100864.47
2022-09-02T21:24:25.818Z,100865.81
2022-09-02T21:27:01.834Z,100869.09
2022-09-02T21:29:47.242Z,100864.31
2022-09-02T21:32:28.909Z,100871.34
2022-09-02T21:35:00.849Z,100862.47
2022-09-02T21:37:31.446Z,100870.00
2022-09-02T21:40:06.500Z,100861.06
2022-09-02T21:42:57.078Z,100866.09
2022-09-02T21:45:33.948Z,100862.97
2022-09-02T21:48:15.600Z,100863.97
2022-09-02T21:50:59.996Z,100865.00
2022-09-02T21:53:45.160Z,100868.72
2022-09-02T21:56:20.882Z,100862.72
2022-09-02T21:59:03.131Z,100854.44
2022-09-02T22:01:44.287Z,100854.75
2022-09-02T22:04:28.488Z,100846.50
2022-09-02T22:07:18.892Z,100842.22
2022-09-02T22:09:55.802Z,100846.69
2022-09-02T22:12:26.565Z,100837.09
2022-09-02T22:14:59.351Z,100848.94
2022-09-02T22:17:51.272Z,100849.25
2022-09-02T22:20:22.339Z,100841.16
2022-09-02T22:22:59.887Z,100842.59
2022-09-02T22:25:29.946Z,100838.13
2022-09-02T22:28:19.269Z,100838.97
2022-09-02T22:30:54.926Z,100849.91
2022-09-02T22:33:25.018Z,100843.34
2022-09-02T22:35:57.594Z,100837.47
2022-09-02T22:38:37.940Z,100842.78
2022-09-02T22:41:27.902Z,100837.94
2022-09-02T22:44:06.269Z,100830.50
2022-09-02T22:47:12.615Z,100845.16
2022-09-02T22:50:19.612Z,100838.97
2022-09-02T22:52:46.682Z,100827.94
2022-09-02T22:55:30.202Z,100830.03
2022-09-02T22:58:21.504Z,100827.25
2022-09-02T23:01:25.430Z,100831.56
2022-09-02T23:04:10.543Z,100830.22
2022-09-02T23:06:38.857Z,100827.03
2022-09-02T23:09:11.307Z,100830.19
2022-09-02T23:11:52.979Z,100819.59
2022-09-02T23:14:38.606Z,100824.53
2022-09-02T23:17:35.981Z,100820.97
2022-09-02T23:20:12.500Z,100822.03
2022-09-02T23:23:06.910Z,100821.59
2022-09-02T23:25:46.054Z,100821.97
2022-09-02T23:28:41.258Z,100825.06
2022-09-02T23:31:50.673Z,100823.34
2022-09-02T23:34:39.630Z,100821.97
2022-09-02T23:37:32.306Z,100830.59
2022-09-02T23:40:14.113Z,100824.09
2022-09-02T23:42:40.591Z,100824.91
2022-09-02T23:45:22.685Z,100820.00
2022-09-02T23:47:55.090Z,100823.94
2022-09-02T23:50:28.453Z,100818.84
2022-09-02T23:53:25.682Z,100820.25
2022-09-02T23:56:07.388Z,100811.91
2022-09-02T23:58:52.423Z,100811.44
